createdAt,value
2018-05-04T00:01:02.520Z,1.57
2018-05-04T00:03:32.250Z,5.37
2018-05-04T00:06:02.022Z,2.30
2018-05-04T00:08:31.660Z,6.83
2018-05-04T00:11:01.574Z,2.13
2018-05-04T00:13:31.142Z,14.93
2018-05-04T00:16:00.716Z,4.10
2018-05-04T00:18:30.320Z,3.70
2018-05-04T00:20:59.917Z,6.53
2018-05-04T00:23:29.441Z,5.80
2018-05-04T00:25:59.920Z,16.20
2018-05-04T00:28:29.488Z,4.53
2018-05-04T00:30:59.057Z,6.00
2018-05-04T00:33:28.601Z,2.60
2018-05-04T00:35:58.177Z,11.40
2018-05-04T00:38:27.693Z,8.13
2018-05-04T00:40:57.241Z,4.60
2018-05-04T00:43:26.783Z,11.70
2018-05-04T00:45:56.299Z,12.60
2018-05-04T00:48:25.841Z,1.90
2018-05-04T00:50:55.385Z,7.37
2018-05-04T00:53:24.907Z,13.47
2018-05-04T00:55:54.461Z,2.27
2018-05-04T00:58:24.052Z,5.40
2018-05-04T01:00:53.597Z,3.37
2018-05-04T01:03:23.155Z,3.70
2018-05-04T01:05:52.916Z,9.33
2018-05-04T01:08:22.508Z,4.33
2018-05-04T01:10:52.017Z,10.73
2018-05-04T01:13:21.778Z,9.40
2018-05-04T01:15:51.408Z,2.63
2018-05-04T01:18:20.968Z,3.33
2018-05-04T01:20:50.500Z,3.93
2018-05-04T01:23:20.150Z,9.00
2018-05-04T01:25:50.207Z,4.53
2018-05-04T01:28:19.702Z,4.50
2018-05-04T01:30:49.237Z,1.10
2018-05-04T01:33:19.641Z,2.53
2018-05-04T01:35:49.435Z,2.33
2018-05-04T01:38:18.985Z,6.60
2018-05-04T01:40:49.414Z,2.00
2018-05-04T01:43:19.219Z,1.77
2018-05-04T01:45:48.761Z,4.07
2018-05-04T01:48:18.385Z,1.70
2018-05-04T01:50:48.022Z,4.30
2018-05-04T01:53:17.650Z,1.37
2018-05-04T01:55:47.705Z,2.60
2018-05-04T01:58:17.245Z,3.07
2018-05-04T02:00:46.777Z,1.87
2018-05-04T02:03:16.427Z,10.63
2018-05-04T02:05:46.795Z,2.53
2018-05-04T02:08:16.362Z,8.10
2018-05-04T02:10:45.889Z,2.20
2018-05-04T02:13:15.476Z,3.03
2018-05-04T02:15:45.051Z,6.60
2018-05-04T02:18:14.553Z,1.90
2018-05-04T02:20:44.093Z,7.07
2018-05-04T02:23:14.084Z,6.83
2018-05-04T02:25:43.817Z,7.00
2018-05-04T02:28:14.963Z,3.27
2018-05-04T02:30:44.695Z,13.03
2018-05-04T02:33:14.401Z,1.30
2018-05-04T02:35:44.046Z,2.60
2018-05-04T02:38:13.656Z,3.67
2018-05-04T02:40:43.219Z,7.13
2018-05-04T02:45:46.764Z,2.70
2018-05-04T02:48:16.339Z,1.97
2018-05-04T02:50:45.876Z,6.20
2018-05-04T02:53:17.608Z,1.67
2018-05-04T02:55:47.479Z,1.00
2018-05-04T02:58:17.733Z,5.80
2018-05-04T03:00:47.267Z,6.57
2018-05-04T03:03:18.682Z,1.57
2018-05-04T03:05:48.249Z,1.50
2018-05-04T03:08:17.804Z,1.00
2018-05-04T03:10:47.385Z,2.30
2018-05-04T03:13:17.973Z,2.50
2018-05-04T03:15:47.664Z,1.73
2018-05-04T03:18:17.157Z,1.00
2018-05-04T03:20:47.259Z,3.90
2018-05-04T03:23:17.018Z,2.80
2018-05-04T03:25:46.598Z,4.47
2018-05-04T03:28:16.257Z,1.60
2018-05-04T03:30:46.126Z,1.97
2018-05-04T03:33:15.802Z,2.73
2018-05-04T03:35:45.497Z,3.00
2018-05-04T03:38:15.306Z,4.13
2018-05-04T03:40:45.558Z,3.43
2018-05-04T03:43:15.138Z,4.90
2018-05-04T03:45:44.691Z,1.77
2018-05-04T03:48:14.244Z,5.53
2018-05-04T03:50:43.886Z,3.40
2018-05-04T03:53:13.628Z,1.47
2018-05-04T03:55:45.034Z,3.70
2018-05-04T03:58:20.743Z,1.83
2018-05-04T04:00:57.895Z,1.30
2018-05-04T04:03:33.383Z,3.50
2018-05-04T04:06:03.453Z,2.60
2018-05-04T04:08:33.035Z,1.50
2018-05-04T04:13:36.546Z,6.00
2018-05-04T04:16:06.178Z,11.63
2018-05-04T04:18:35.753Z,14.20
2018-05-04T04:21:05.613Z,29.67
2018-05-04T04:23:36.121Z,9.60
2018-05-04T04:26:06.036Z,19.37
2018-05-04T04:28:36.293Z,13.97
2018-05-04T04:31:06.288Z,4.30
2018-05-04T04:33:35.851Z,16.23
2018-05-04T04:36:05.535Z,9.60
2018-05-04T04:38:35.548Z,9.27
2018-05-04T04:41:05.109Z,12.00
2018-05-04T04:43:34.917Z,17.90
2018-05-04T04:46:05.760Z,3.80
2018-05-04T04:48:35.346Z,5.90
2018-05-04T04:51:04.980Z,5.67
2018-05-04T04:53:34.994Z,3.33
2018-05-04T04:56:05.113Z,1.87
2018-05-04T04:58:34.663Z,4.23
2018-05-04T05:01:04.343Z,2.23
2018-05-04T05:03:33.898Z,4.60
2018-05-04T05:06:03.462Z,5.63
2018-05-04T05:08:33.106Z,2.83
2018-05-04T05:11:02.708Z,2.43
2018-05-04T05:13:32.395Z,6.10
2018-05-04T05:16:01.964Z,4.47
2018-05-04T05:18:31.562Z,10.83
2018-05-04T05:21:01.138Z,3.50
2018-05-04T05:23:30.926Z,10.83
2018-05-04T05:26:00.495Z,16.47
2018-05-04T05:28:30.282Z,37.50
2018-05-04T05:31:01.186Z,49.97
2018-05-04T05:33:30.772Z,50.90
2018-05-04T05:36:00.322Z,54.60
2018-05-04T05:38:29.885Z,34.47
2018-05-04T05:40:59.487Z,51.90
2018-05-04T05:43:29.008Z,38.77
2018-05-04T05:45:58.582Z,65.30
2018-05-04T05:48:28.251Z,57.83
2018-05-04T05:50:57.837Z,68.10
2018-05-04T05:53:27.410Z,25.90
2018-05-04T05:55:56.993Z,44.10
2018-05-04T05:58:26.561Z,10.73
2018-05-04T06:00:56.096Z,5.73
2018-05-04T06:03:25.682Z,5.73
2018-05-04T06:05:55.271Z,1.93
2018-05-04T06:08:24.846Z,13.13
2018-05-04T06:10:54.412Z,9.53
2018-05-04T06:13:23.970Z,6.30
2018-05-04T06:15:53.547Z,10.07
2018-05-04T06:18:23.070Z,5.40
2018-05-04T06:20:52.594Z,8.77
2018-05-04T06:23:22.382Z,3.57
2018-05-04T06:25:51.923Z,3.33
2018-05-04T06:28:21.861Z,5.30
2018-05-04T06:30:51.413Z,3.00
2018-05-04T06:33:21.922Z,3.83
2018-05-04T06:36:24.785Z,10.73
2018-05-04T06:47:19.341Z,6.63
2018-05-04T06:49:49.735Z,4.03
2018-05-04T07:04:35.817Z,5.30
2018-05-04T07:07:06.848Z,11.20
2018-05-04T07:09:36.466Z,6.10
2018-05-04T07:12:21.177Z,2.97
2018-05-04T07:17:50.339Z,6.20
2018-05-04T07:24:03.833Z,15.77
2018-05-04T07:29:57.187Z,3.93
2018-05-04T08:07:46.202Z,10.30
2018-05-04T08:13:34.586Z,5.27
2018-05-04T08:19:56.004Z,11.27
2018-05-04T10:23:01.614Z,5.63
2018-05-04T10:32:19.141Z,8.83
2018-05-04T10:38:12.517Z,4.03
2018-05-04T11:04:26.572Z,12.60
2018-05-04T11:07:25.587Z,9.70
2018-05-04T11:24:03.107Z,10.40
2018-05-04T12:38:06.905Z,9.30
2018-05-04T12:40:38.263Z,8.30
2018-05-04T12:43:08.084Z,8.57
2018-05-04T12:45:38.863Z,7.30
2018-05-04T12:48:10.128Z,5.87
2018-05-04T12:50:40.865Z,5.60
2018-05-04T12:53:12.976Z,5.17
2018-05-04T12:55:42.513Z,7.20
2018-05-04T12:58:12.052Z,7.73
2018-05-04T13:00:41.668Z,17.67
2018-05-04T13:03:11.270Z,10.03
2018-05-04T13:05:40.818Z,10.00
2018-05-04T13:08:10.370Z,8.83
2018-05-04T13:10:40.001Z,11.50
2018-05-04T13:13:09.585Z,20.53
2018-05-04T13:15:39.165Z,12.40
2018-05-04T13:18:08.837Z,9.77
2018-05-04T13:20:38.414Z,7.50
2018-05-04T13:23:08.110Z,7.07
2018-05-04T13:25:37.682Z,8.63
2018-05-04T13:28:07.272Z,5.47
2018-05-04T13:30:36.874Z,9.80
2018-05-04T13:33:06.468Z,8.70
2018-05-04T13:35:36.076Z,8.97
2018-05-04T13:38:05.722Z,16.90
2018-05-04T13:40:35.647Z,6.80
2018-05-04T13:43:05.303Z,17.03
2018-05-04T13:45:35.136Z,9.73
2018-05-04T13:48:05.687Z,11.53
2018-05-04T13:50:35.246Z,6.50
2018-05-04T13:53:04.861Z,7.93
2018-05-04T13:55:34.482Z,5.90
2018-05-04T13:58:04.042Z,10.07
2018-05-04T14:00:33.610Z,8.70
2018-05-04T14:03:03.212Z,11.00
2018-05-04T14:05:32.844Z,9.70
2018-05-04T14:08:02.621Z,5.90
2018-05-04T14:10:32.156Z,5.10
2018-05-04T14:13:01.793Z,4.70
2018-05-04T14:15:31.427Z,8.57
2018-05-04T14:18:00.978Z,4.60
2018-05-04T14:20:30.903Z,7.20
2018-05-04T14:23:00.486Z,9.30
2018-05-04T14:25:30.072Z,8.40
2018-05-04T14:27:59.725Z,9.60
2018-05-04T14:30:29.378Z,10.17
2018-05-04T14:32:58.983Z,7.27
2018-05-04T14:35:28.588Z,18.47
2018-05-04T14:37:58.201Z,16.07
2018-05-04T14:40:27.790Z,6.33
2018-05-04T14:42:57.386Z,5.43
2018-05-04T14:45:26.978Z,8.93
2018-05-04T14:47:56.634Z,13.67
2018-05-04T14:50:26.545Z,6.50
2018-05-04T14:52:56.171Z,5.40
2018-05-04T14:55:25.861Z,6.53
2018-05-04T14:57:55.488Z,12.80
2018-05-04T15:00:25.057Z,8.73
2018-05-04T15:02:54.645Z,5.70
2018-05-04T15:05:24.218Z,4.00
2018-05-04T15:07:53.741Z,17.93
2018-05-04T15:10:23.268Z,5.70
2018-05-04T15:12:53.072Z,3.90
2018-05-04T15:15:22.598Z,5.87
2018-05-04T15:17:52.382Z,7.23
2018-05-04T15:20:21.941Z,5.07
2018-05-04T15:22:51.483Z,11.90
2018-05-04T15:25:21.025Z,4.97
2018-05-04T15:27:50.541Z,8.60
2018-05-04T15:30:20.097Z,9.00
2018-05-04T15:32:49.620Z,3.30
2018-05-04T15:35:19.192Z,10.13
2018-05-04T15:37:48.777Z,10.90
2018-05-04T15:40:18.353Z,18.43
2018-05-04T15:42:47.902Z,17.33
2018-05-04T15:45:17.452Z,6.63
2018-05-04T15:47:47.054Z,4.83
2018-05-04T15:50:22.270Z,8.27
2018-05-04T15:52:51.793Z,7.27
2018-05-04T15:55:21.454Z,5.37
2018-05-04T15:57:51.002Z,2.73
2018-05-04T16:00:20.542Z,11.00
2018-05-04T16:02:50.526Z,7.10
2018-05-04T16:05:20.061Z,13.23
2018-05-04T16:07:49.640Z,10.60
2018-05-04T16:10:19.366Z,4.37
2018-05-04T16:12:48.890Z,9.43
2018-05-04T16:15:18.422Z,7.53
2018-05-04T16:17:47.943Z,7.43
2018-05-04T16:20:17.488Z,6.17
2018-05-04T16:22:47.257Z,10.10
2018-05-04T16:25:16.782Z,10.97
2018-05-04T16:27:46.305Z,13.50
2018-05-04T16:30:15.852Z,9.50
2018-05-04T16:32:45.429Z,10.83
2018-05-04T16:35:14.996Z,6.90
2018-05-04T16:37:44.531Z,6.27
2018-05-04T16:40:14.066Z,18.10
2018-05-04T16:42:43.597Z,10.00
2018-05-04T16:45:13.080Z,10.60
2018-05-04T16:47:48.394Z,6.30
2018-05-04T16:50:17.953Z,6.17
2018-05-04T16:52:47.484Z,11.53
2018-05-04T16:55:16.973Z,7.50
2018-05-04T16:57:46.558Z,9.17
2018-05-04T17:00:16.325Z,13.20
2018-05-04T17:02:46.130Z,5.97
2018-05-04T17:05:15.704Z,7.20
2018-05-04T17:07:45.265Z,4.50
2018-05-04T17:10:14.829Z,7.20
2018-05-04T17:12:44.563Z,7.43
2018-05-04T17:15:14.198Z,4.80
2018-05-04T17:17:43.813Z,7.80
2018-05-04T17:20:13.339Z,8.27
2018-05-04T17:22:42.921Z,9.53
2018-05-04T17:25:12.531Z,7.80
2018-05-04T17:27:42.131Z,7.30
2018-05-04T17:30:11.723Z,10.97
2018-05-04T17:32:41.475Z,4.93
2018-05-04T17:35:11.041Z,6.73
2018-05-04T17:37:40.550Z,8.23
2018-05-04T17:40:10.102Z,9.73
2018-05-04T17:42:39.666Z,12.17
2018-05-04T17:45:09.254Z,7.97
2018-05-04T17:47:38.789Z,4.40
2018-05-04T17:50:08.313Z,8.57
2018-05-04T17:52:37.903Z,7.03
2018-05-04T17:55:07.547Z,3.23
2018-05-04T17:57:37.361Z,10.20
2018-05-04T18:00:06.928Z,9.60
2018-05-04T18:02:36.455Z,3.13
2018-05-04T18:05:06.029Z,6.73
2018-05-04T18:07:35.779Z,5.43
2018-05-04T18:10:05.481Z,4.00
2018-05-04T18:12:35.090Z,4.60
2018-05-04T18:15:04.726Z,9.77
2018-05-04T18:17:34.241Z,3.90
2018-05-04T18:20:03.766Z,11.43
2018-05-04T18:22:33.301Z,9.37
2018-05-04T18:25:02.868Z,11.20
2018-05-04T18:27:32.516Z,4.97
2018-05-04T18:30:02.094Z,9.00
2018-05-04T18:32:31.658Z,15.17
2018-05-04T18:35:01.453Z,9.30
2018-05-04T18:37:31.001Z,4.23
2018-05-04T18:40:00.593Z,6.90
2018-05-04T18:42:30.329Z,6.60
2018-05-04T18:45:00.033Z,10.10
2018-05-04T18:47:29.560Z,7.33
2018-05-04T18:49:59.092Z,4.23
2018-05-04T18:52:28.676Z,5.70
2018-05-04T18:54:58.210Z,6.27
2018-05-04T18:57:27.967Z,6.10
2018-05-04T18:59:57.728Z,8.07
2018-05-04T19:02:33.046Z,6.10
2018-05-04T19:05:03.328Z,6.07
2018-05-04T19:07:32.906Z,7.00
2018-05-04T19:10:02.448Z,6.37
2018-05-04T19:12:32.139Z,5.77
2018-05-04T19:15:01.718Z,7.33
2018-05-04T19:17:31.286Z,7.20
2018-05-04T19:20:01.395Z,9.47
2018-05-04T19:22:34.348Z,6.40
2018-05-04T19:25:04.019Z,16.30
2018-05-04T19:27:33.632Z,8.73
2018-05-04T19:30:03.271Z,8.03
2018-05-04T19:32:33.017Z,12.00
2018-05-04T19:37:54.379Z,4.20
2018-05-04T19:43:41.310Z,3.83
2018-05-04T19:46:17.288Z,6.07
2018-05-04T19:48:49.998Z,6.67
2018-05-04T19:51:19.709Z,6.37
2018-05-04T19:53:51.221Z,12.27
2018-05-04T19:56:28.068Z,4.30
2018-05-04T20:18:06.077Z,5.97
2018-05-04T20:20:37.515Z,4.73
2018-05-04T21:05:01.102Z,18.60
2018-05-04T21:07:30.659Z,10.33
2018-05-04T21:10:00.236Z,19.60
2018-05-04T21:12:29.932Z,10.23
2018-05-04T21:14:59.531Z,9.83
2018-05-04T21:17:29.076Z,10.40
2018-05-04T21:19:58.640Z,6.17
2018-05-04T21:22:28.303Z,18.73
2018-05-04T21:24:57.917Z,7.10
2018-05-04T21:27:27.442Z,8.63
2018-05-04T21:29:57.274Z,9.43
2018-05-04T21:32:26.845Z,29.17
2018-05-04T21:34:56.445Z,8.87
2018-05-04T21:37:26.000Z,23.33
2018-05-04T21:39:55.553Z,19.53
2018-05-04T21:42:25.082Z,12.77
2018-05-04T21:44:55.538Z,16.30
2018-05-04T21:47:25.097Z,12.37
2018-05-04T21:49:54.714Z,6.27
2018-05-04T21:52:24.570Z,21.93
2018-05-04T21:54:54.122Z,12.73
2018-05-04T21:57:23.664Z,11.17
2018-05-04T21:59:53.208Z,6.13
2018-05-04T22:02:22.779Z,6.50
2018-05-04T22:04:52.544Z,7.03
2018-05-04T22:07:22.380Z,8.20
2018-05-04T22:09:53.163Z,5.33
2018-05-04T22:12:23.079Z,13.90
2018-05-04T22:14:52.933Z,13.37
2018-05-04T22:17:22.816Z,7.57
2018-05-04T22:19:54.301Z,7.17
2018-05-04T22:22:24.065Z,5.10
2018-05-04T22:24:53.780Z,6.63
2018-05-04T22:27:23.317Z,4.90
2018-05-04T22:29:52.994Z,3.50
2018-05-04T22:32:22.637Z,5.27
2018-05-04T22:34:52.368Z,6.50
2018-05-04T22:37:22.640Z,5.90
2018-05-04T22:39:53.579Z,3.43
2018-05-04T22:42:23.232Z,2.83
2018-05-04T22:44:52.791Z,10.77
2018-05-04T22:47:22.379Z,13.30
2018-05-04T22:49:51.937Z,8.87
2018-05-04T22:52:21.509Z,4.30
2018-05-04T22:54:51.250Z,12.30
2018-05-04T22:57:20.932Z,7.00
2018-05-04T22:59:50.527Z,8.20
2018-05-04T23:02:20.469Z,5.80
2018-05-04T23:04:50.259Z,6.60
2018-05-04T23:07:19.811Z,6.20
2018-05-04T23:09:49.396Z,22.03
2018-05-04T23:12:18.985Z,8.03
2018-05-04T23:14:48.908Z,5.30
2018-05-04T23:17:18.504Z,5.80
2018-05-04T23:19:48.166Z,10.03
2018-05-04T23:22:28.897Z,10.73
2018-05-04T23:24:58.628Z,8.20
2018-05-04T23:27:28.211Z,7.70
2018-05-04T23:29:58.094Z,7.37
2018-05-04T23:32:29.583Z,3.73
2018-05-04T23:34:59.157Z,7.47
2018-05-04T23:37:28.717Z,3.20
2018-05-04T23:39:58.269Z,7.17
2018-05-04T23:45:02.668Z,3.30
2018-05-04T23:47:32.225Z,4.07
2018-05-04T23:50:01.782Z,5.30
2018-05-04T23:52:32.277Z,4.43
2018-05-04T23:55:01.914Z,9.87
2018-05-04T23:57:31.506Z,6.30
